Time;durP1;ratioP1;P1;durP2;ratioP2;P2;SDS_P1;SDS_P2;PMS_P1;PMS_P2;Temp;Humidity;BMP_temperature;BMP_pressure;BME280_temperature;BME280_humidity;BME280_pressure;Samples;Min_cycle;Max_cycle;Signal;HPM_P1;HPM_P2
2021/10/09 00:01:08;;;;;;;9.70;3.35;;;7.00;62.50;;;;;;5054504;28;20028;-88
2021/10/09 00:03:34;;;;;;;5.30;3.67;;;7.00;62.50;;;;;;5054452;28;20032;-88
2021/10/09 00:06:01;;;;;;;6.65;3.53;;;6.90;62.50;;;;;;5054158;28;20443;-88
2021/10/09 00:08:27;;;;;;;6.43;3.03;;;6.90;62.70;;;;;;5054481;28;20088;-88
2021/10/09 00:10:53;;;;;;;5.32;2.83;;;6.80;62.70;;;;;;5053211;28;20129;-88
2021/10/09 00:13:18;;;;;;;7.07;3.03;;;6.80;62.80;;;;;;5054333;28;20017;-88
2021/10/09 00:15:45;;;;;;;9.27;3.05;;;6.80;63.30;;;;;;5054201;28;20017;-88
2021/10/09 00:18:10;;;;;;;3.78;2.20;;;6.70;63.30;;;;;;5054099;28;20036;-88
2021/10/09 00:20:36;;;;;;;4.97;2.67;;;6.70;63.30;;;;;;5053951;28;20033;-88
2021/10/09 00:23:02;;;;;;;5.22;2.60;;;6.70;63.30;;;;;;5054473;28;20028;-88
2021/10/09 00:25:28;;;;;;;4.30;3.15;;;6.70;63.30;;;;;;5054309;28;20020;-88
2021/10/09 00:27:53;;;;;;;4.28;2.42;;;6.70;63.40;;;;;;5054439;28;20033;-88
2021/10/09 00:30:19;;;;;;;3.95;2.58;;;6.70;63.30;;;;;;5053995;28;20040;-88
2021/10/09 00:32:45;;;;;;;3.92;2.50;;;6.60;63.40;;;;;;5054338;28;20068;-88
2021/10/09 00:35:11;;;;;;;6.63;2.80;;;6.60;63.40;;;;;;5053912;28;20017;-88
2021/10/09 00:37:37;;;;;;;5.32;3.10;;;6.60;63.40;;;;;;5054054;28;20017;-88
2021/10/09 00:40:04;;;;;;;3.85;2.58;;;6.60;63.50;;;;;;5053376;28;20067;-88
2021/10/09 00:42:29;;;;;;;2.00;1.55;;;6.60;63.60;;;;;;5053882;28;20032;-88
2021/10/09 00:44:55;;;;;;;6.50;2.63;;;6.60;63.50;;;;;;5053852;28;20024;-88
2021/10/09 00:47:25;;;;;;;5.60;2.67;;;6.60;63.80;;;;;;5052366;28;20032;-88
2021/10/09 00:49:51;;;;;;;3.92;2.38;;;6.50;63.80;;;;;;5053747;28;20103;-88
2021/10/09 00:52:18;;;;;;;3.30;1.95;;;6.50;63.90;;;;;;5053838;28;20464;-88
2021/10/09 00:54:47;;;;;;;3.30;2.22;;;6.50;63.90;;;;;;5053664;28;20097;-88
2021/10/09 00:57:19;;;;;;;3.42;1.88;;;6.50;63.90;;;;;;5052847;28;20108;-88
2021/10/09 00:59:47;;;;;;;30.48;2.88;;;6.50;63.90;;;;;;5053927;28;20021;-88
2021/10/09 01:02:13;;;;;;;12.63;1.98;;;6.50;64.30;;;;;;5053130;28;20024;-88
2021/10/09 01:04:39;;;;;;;6.85;2.70;;;6.50;64.10;;;;;;5053722;28;20074;-88
2021/10/09 01:07:05;;;;;;;3.15;2.28;;;6.60;64.30;;;;;;5052843;28;20027;-88
2021/10/09 01:09:32;;;;;;;3.70;2.55;;;6.60;64.50;;;;;;5053882;28;20078;-88
2021/10/09 01:11:58;;;;;;;3.55;2.58;;;6.60;64.30;;;;;;5052889;28;20060;-89
2021/10/09 01:14:23;;;;;;;5.15;2.97;;;6.60;64.70;;;;;;5054284;28;20060;-88
2021/10/09 01:16:49;;;;;;;5.30;2.83;;;6.70;64.70;;;;;;5052916;28;20052;-88
2021/10/09 01:19:15;;;;;;;8.20;2.88;;;6.70;64.70;;;;;;5052777;28;20402;-88
2021/10/09 01:21:46;;;;;;;4.35;3.00;;;6.70;64.50;;;;;;5053717;28;20029;-88
2021/10/09 01:24:13;;;;;;;6.07;2.85;;;6.70;64.20;;;;;;5053351;28;20032;-89
2021/10/09 01:26:39;;;;;;;4.40;2.45;;;6.70;64.00;;;;;;5053490;28;20029;-88
2021/10/09 01:29:07;;;;;;;3.40;2.75;;;6.70;64.50;;;;;;5052207;28;20021;-89
2021/10/09 01:31:34;;;;;;;4.47;3.05;;;6.60;63.90;;;;;;5051841;28;20120;-88
2021/10/09 01:34:00;;;;;;;3.75;2.47;;;6.60;64.10;;;;;;5053413;28;20032;-88
2021/10/09 01:36:34;;;;;;;6.28;3.10;;;6.60;64.10;;;;;;5052335;28;20079;-88
2021/10/09 01:39:01;;;;;;;4.80;2.05;;;6.60;64.00;;;;;;5053298;28;20032;-88
2021/10/09 01:41:27;;;;;;;5.63;2.38;;;6.60;63.80;;;;;;5053176;28;20041;-88
2021/10/09 01:43:53;;;;;;;2.88;1.98;;;6.50;63.70;;;;;;5052015;28;20367;-88
2021/10/09 01:46:19;;;;;;;4.22;1.92;;;6.50;63.80;;;;;;5053787;28;20017;-88
2021/10/09 01:48:45;;;;;;;4.05;2.15;;;6.50;63.80;;;;;;5053303;28;20105;-88
2021/10/09 01:51:11;;;;;;;6.10;3.13;;;6.40;63.90;;;;;;5052317;28;20043;-88
2021/10/09 01:53:38;;;;;;;6.70;1.75;;;6.40;64.10;;;;;;5053355;28;20043;-88
2021/10/09 01:56:05;;;;;;;2.72;1.60;;;6.30;64.00;;;;;;5051831;28;20029;-88
2021/10/09 01:58:31;;;;;;;3.50;1.83;;;6.30;64.00;;;;;;5052824;28;20021;-88
2021/10/09 02:00:57;;;;;;;6.00;2.22;;;6.30;64.20;;;;;;5053236;28;20029;-88
2021/10/09 02:03:22;;;;;;;4.22;1.50;;;6.20;64.30;;;;;;5052769;28;20021;-89
2021/10/09 02:05:49;;;;;;;2.05;1.55;;;6.20;64.40;;;;;;5052944;28;20513;-88
2021/10/09 02:08:15;;;;;;;1.92;1.70;;;6.10;64.40;;;;;;5052791;28;20111;-88
2021/10/09 02:13:25;;;;;;;5.22;2.58;;;6.10;64.30;;;;;;5053141;28;20048;-88
2021/10/09 02:15:58;;;;;;;4.63;1.90;;;6.10;64.60;;;;;;5055617;28;20028;-88
2021/10/09 02:18:47;;;;;;;2.95;2.05;;;6.00;64.50;;;;;;5056638;28;20461;-88
2021/10/09 02:24:13;;;;;;;4.78;2.45;;;6.00;64.80;;;;;;5056289;28;20504;-88
2021/10/09 02:26:39;;;;;;;3.88;2.25;;;6.00;65.00;;;;;;5056471;28;20103;-88
2021/10/09 02:29:05;;;;;;;9.95;3.45;;;5.90;65.10;;;;;;5055056;28;20087;-88
2021/10/09 02:31:30;;;;;;;3.40;2.00;;;5.90;65.10;;;;;;5056149;28;20106;-88
2021/10/09 02:33:56;;;;;;;2.90;2.10;;;5.90;65.10;;;;;;5055840;28;20053;-89
2021/10/09 02:36:22;;;;;;;3.72;2.47;;;5.80;65.10;;;;;;5056266;28;20025;-88
2021/10/09 02:38:48;;;;;;;4.15;2.25;;;5.80;65.20;;;;;;5056149;28;20378;-88
2021/10/09 02:41:14;;;;;;;5.22;2.45;;;5.80;65.30;;;;;;5056082;28;20082;-88
2021/10/09 02:43:39;;;;;;;4.18;2.90;;;5.80;65.20;;;;;;5055976;28;20395;-88
2021/10/09 02:46:05;;;;;;;4.43;2.50;;;5.70;65.20;;;;;;5056010;28;20380;-88
2021/10/09 02:48:31;;;;;;;3.22;2.13;;;5.70;65.20;;;;;;5054362;28;20106;-88
2021/10/09 02:50:57;;;;;;;5.00;2.08;;;5.60;65.10;;;;;;5055960;28;20049;-88
2021/10/09 02:53:23;;;;;;;5.28;2.95;;;5.60;65.50;;;;;;5055829;28;20448;-88
2021/10/09 02:55:49;;;;;;;4.63;2.90;;;5.60;65.90;;;;;;5055968;28;20024;-89
2021/10/09 02:58:14;;;;;;;3.47;2.47;;;5.60;65.70;;;;;;5055743;28;20032;-88
2021/10/09 03:00:41;;;;;;;2.88;1.80;;;5.50;65.70;;;;;;5054503;28;20028;-88
2021/10/09 03:03:07;;;;;;;3.28;1.98;;;5.50;66.00;;;;;;5055433;28;20079;-88
2021/10/09 03:05:33;;;;;;;3.00;1.95;;;5.50;66.00;;;;;;5054547;28;20044;-88
2021/10/09 03:07:58;;;;;;;5.85;2.70;;;5.50;66.20;;;;;;5054486;28;20022;-88
2021/10/09 03:10:24;;;;;;;4.55;2.10;;;5.50;66.20;;;;;;5055551;28;20035;-88
2021/10/09 03:12:50;;;;;;;3.85;2.78;;;5.50;66.20;;;;;;5054111;28;20060;-88
2021/10/09 03:15:16;;;;;;;6.28;2.28;;;5.50;66.50;;;;;;5055467;28;20021;-88
2021/10/09 03:17:41;;;;;;;6.55;2.55;;;5.50;66.40;;;;;;5055319;28;20425;-88
2021/10/09 03:20:10;;;;;;;4.68;3.60;;;5.50;66.40;;;;;;5054269;28;20029;-88
2021/10/09 03:22:37;;;;;;;3.65;2.67;;;5.50;66.40;;;;;;5055431;28;20024;-88
2021/10/09 03:25:04;;;;;;;2.97;2.33;;;5.40;66.30;;;;;;5054044;28;20024;-88
2021/10/09 03:27:30;;;;;;;4.85;2.65;;;5.40;66.40;;;;;;5055001;28;20028;-88
2021/10/09 03:29:55;;;;;;;6.43;2.85;;;5.40;66.90;;;;;;5055276;28;20025;-88
2021/10/09 03:32:21;;;;;;;3.72;2.58;;;5.40;66.80;;;;;;5055165;28;20025;-88
2021/10/09 03:34:47;;;;;;;6.30;2.33;;;5.40;66.80;;;;;;5055015;28;20102;-88
2021/10/09 03:37:12;;;;;;;4.78;2.15;;;5.40;66.70;;;;;;5055063;28;20024;-88
2021/10/09 03:39:41;;;;;;;2.17;1.70;;;5.40;66.70;;;;;;5054841;28;20025;-88
2021/10/09 03:44:43;;;;;;;7.65;2.70;;;5.30;66.60;;;;;;5054696;28;20043;-89
2021/10/09 03:47:22;;;;;;;3.00;1.98;;;5.30;66.80;;;;;;5055075;28;20017;-88
2021/10/09 03:49:58;;;;;;;2.47;1.70;;;5.30;66.70;;;;;;5053494;28;20118;-88
2021/10/09 03:54:49;;;;;;;3.67;2.35;;;5.20;66.80;;;;;;5054804;28;20104;-88
2021/10/09 03:57:15;;;;;;;3.78;2.40;;;5.20;67.10;;;;;;5054514;28;20025;-88
2021/10/09 03:59:40;;;;;;;9.45;3.47;;;5.20;67.20;;;;;;5054916;28;20029;-88
2021/10/09 04:02:06;;;;;;;2.88;2.53;;;5.10;67.10;;;;;;5054495;28;20414;-88
2021/10/09 04:04:32;;;;;;;5.18;2.40;;;5.20;66.90;;;;;;5054392;28;20029;-88
2021/10/09 04:06:57;;;;;;;3.13;1.95;;;5.10;67.00;;;;;;5053423;28;20079;-88
2021/10/09 04:09:23;;;;;;;3.20;2.50;;;5.10;67.00;;;;;;5052942;28;20017;-88
2021/10/09 04:11:49;;;;;;;4.88;2.25;;;5.10;67.10;;;;;;5054104;28;20080;-88
2021/10/09 04:14:15;;;;;;;4.93;2.53;;;5.00;67.40;;;;;;5054539;28;20108;-88
2021/10/09 04:16:40;;;;;;;2.97;2.05;;;5.00;67.60;;;;;;5054842;28;20031;-88
2021/10/09 04:19:06;;;;;;;3.88;2.67;;;4.90;67.70;;;;;;5054066;28;20025;-88
2021/10/09 04:21:32;;;;;;;8.38;2.88;;;5.00;67.70;;;;;;5054181;28;20028;-88
2021/10/09 04:23:57;;;;;;;5.07;2.88;;;5.00;68.00;;;;;;5054311;28;20059;-88
2021/10/09 04:26:23;;;;;;;4.60;2.28;;;4.90;67.70;;;;;;5052892;28;20024;-88
2021/10/09 04:28:49;;;;;;;4.22;2.58;;;4.90;67.80;;;;;;5053907;28;20028;-88
2021/10/09 04:31:15;;;;;;;3.47;2.58;;;5.00;67.90;;;;;;5053603;28;20043;-88
2021/10/09 04:33:41;;;;;;;3.65;2.58;;;5.00;67.90;;;;;;5054100;28;20048;-88
2021/10/09 04:36:08;;;;;;;2.28;2.05;;;5.00;67.80;;;;;;5052173;28;20058;-88
2021/10/09 04:38:34;;;;;;;2.40;1.88;;;5.00;67.60;;;;;;5053834;28;20515;-88
2021/10/09 04:41:00;;;;;;;3.50;2.35;;;5.00;67.80;;;;;;5052313;28;20029;-88
2021/10/09 04:43:25;;;;;;;3.20;1.95;;;5.10;67.80;;;;;;5052296;28;20043;-88
2021/10/09 04:45:51;;;;;;;3.17;2.53;;;5.10;67.90;;;;;;5053656;28;20131;-88
2021/10/09 04:48:17;;;;;;;4.38;3.05;;;5.10;67.60;;;;;;5053607;28;20023;-88
2021/10/09 04:50:42;;;;;;;3.38;2.10;;;5.10;67.70;;;;;;5052169;28;20518;-88
2021/10/09 04:53:08;;;;;;;4.03;2.35;;;5.20;67.50;;;;;;5053658;28;20021;-88
2021/10/09 04:55:34;;;;;;;3.80;2.35;;;5.20;67.50;;;;;;5053917;28;20513;-88
2021/10/09 04:57:59;;;;;;;9.88;2.25;;;5.20;67.50;;;;;;5053483;28;20455;-88
2021/10/09 05:00:25;;;;;;;4.47;2.35;;;5.20;67.50;;;;;;5053385;28;20025;-88
2021/10/09 05:02:51;;;;;;;4.50;2.55;;;5.20;67.50;;;;;;5054442;28;20028;-87
2021/10/09 05:05:16;;;;;;;5.13;2.75;;;5.30;67.50;;;;;;5053477;28;20021;-88
2021/10/09 05:07:42;;;;;;;3.78;3.03;;;5.30;67.20;;;;;;5053377;28;20558;-88
2021/10/09 05:10:09;;;;;;;2.97;1.90;;;5.30;67.20;;;;;;5052988;28;20406;-88
2021/10/09 05:12:35;;;;;;;5.70;2.67;;;5.30;67.10;;;;;;5052306;28;20360;-88
2021/10/09 05:15:02;;;;;;;4.43;2.17;;;5.40;67.20;;;;;;5052985;28;20513;-89
2021/10/09 05:17:28;;;;;;;3.05;2.25;;;5.50;67.20;;;;;;5052099;28;20060;-89
2021/10/09 05:19:54;;;;;;;3.15;2.10;;;5.50;66.90;;;;;;5053367;28;20060;-88
2021/10/09 05:22:20;;;;;;;3.70;2.30;;;5.60;66.80;;;;;;5052970;28;20036;-88
2021/10/09 05:24:49;;;;;;;4.95;2.75;;;5.70;66.70;;;;;;5052944;28;20456;-89
2021/10/09 05:27:15;;;;;;;5.07;2.10;;;5.80;66.40;;;;;;5053657;28;20020;-88
2021/10/09 05:29:40;;;;;;;7.35;2.30;;;5.90;66.20;;;;;;5053229;28;20107;-88
2021/10/09 05:32:07;;;;;;;4.97;2.45;;;5.90;66.20;;;;;;5052947;28;20068;-88
2021/10/09 05:34:33;;;;;;;4.85;3.17;;;6.00;65.90;;;;;;5051739;28;20025;-88
2021/10/09 05:36:59;;;;;;;3.33;2.47;;;6.20;65.70;;;;;;5052074;28;20017;-88
2021/10/09 05:39:25;;;;;;;2.72;1.88;;;6.20;65.50;;;;;;5053063;28;20032;-88
2021/10/09 05:41:51;;;;;;;5.65;2.88;;;6.40;65.30;;;;;;5053025;28;20028;-88
2021/10/09 05:44:17;;;;;;;9.07;2.90;;;6.40;64.90;;;;;;5051890;28;20063;-90
2021/10/09 05:46:42;;;;;;;8.82;3.70;;;6.50;64.70;;;;;;5051887;28;20091;-88
2021/10/09 05:49:09;;;;;;;3.92;2.40;;;6.70;64.60;;;;;;5054217;28;20041;-89
2021/10/09 07:00:25;;;;;;;3.58;2.15;;;8.70;57.30;;;;;;5052743;28;20028;-88
2021/10/09 07:02:51;;;;;;;5.93;2.25;;;8.60;57.00;;;;;;5051954;28;20124;-88
2021/10/09 07:05:17;;;;;;;2.10;1.90;;;8.60;57.00;;;;;;5053602;28;20021;-88
2021/10/09 07:07:56;;;;;;;5.47;2.85;;;8.70;57.00;;;;;;5053559;28;20103;-88
2021/10/09 07:10:21;;;;;;;3.63;2.45;;;8.60;56.60;;;;;;5053785;28;20058;-88
2021/10/09 07:12:47;;;;;;;5.75;2.92;;;8.60;56.80;;;;;;5052454;28;20046;-88
2021/10/09 07:15:18;;;;;;;4.28;2.40;;;8.60;57.00;;;;;;5056248;28;20447;-88
2021/10/09 07:17:45;;;;;;;3.95;2.33;;;8.60;56.90;;;;;;5056864;28;20112;-88
2021/10/09 07:20:11;;;;;;;5.25;2.55;;;8.60;57.00;;;;;;5066269;28;20032;-88
2021/10/09 07:22:37;;;;;;;7.50;2.42;;;8.50;57.20;;;;;;5071433;28;20085;-88
2021/10/09 07:25:04;;;;;;;6.18;2.53;;;8.60;57.30;;;;;;5061096;28;20044;-88
2021/10/09 07:27:30;;;;;;;9.70;2.70;;;8.60;57.20;;;;;;5055865;28;20021;-88
2021/10/09 07:29:56;;;;;;;5.82;2.70;;;8.70;57.00;;;;;;5055252;28;20046;-88
2021/10/09 07:32:22;;;;;;;4.65;2.72;;;8.70;56.80;;;;;;5053774;28;20375;-88
2021/10/09 07:34:47;;;;;;;6.60;2.30;;;8.70;56.60;;;;;;5053432;28;20099;-88
2021/10/09 07:37:13;;;;;;;4.13;2.35;;;8.80;56.50;;;;;;5053798;28;20433;-88
2021/10/09 07:39:39;;;;;;;2.75;1.70;;;8.80;56.70;;;;;;5053668;28;20021;-88
2021/10/09 07:42:05;;;;;;;4.40;2.60;;;8.90;56.90;;;;;;5053153;28;20025;-88
2021/10/09 07:44:30;;;;;;;4.47;3.42;;;8.90;56.10;;;;;;5054416;28;20104;-88
2021/10/09 07:46:56;;;;;;;7.10;2.05;;;9.00;56.50;;;;;;5054428;28;20025;-88
2021/10/09 07:49:22;;;;;;;2.22;1.90;;;9.10;56.20;;;;;;5054526;28;20421;-89
2021/10/09 07:51:48;;;;;;;6.15;1.70;;;9.30;56.10;;;;;;5086597;28;20110;-88
2021/10/09 07:54:14;;;;;;;1.90;1.60;;;9.50;55.80;;;;;;5053317;28;20052;-88
2021/10/09 07:56:40;;;;;;;1.85;1.67;;;9.60;55.60;;;;;;5086944;28;20032;-89
2021/10/09 07:59:05;;;;;;;10.35;2.22;;;9.80;55.40;;;;;;5053133;28;20021;-89
2021/10/09 08:01:32;;;;;;;4.63;2.08;;;10.00;55.10;;;;;;5052902;28;20031;-88
2021/10/09 08:03:58;;;;;;;2.65;2.10;;;10.30;54.20;;;;;;5053642;28;20045;-88
2021/10/09 08:06:24;;;;;;;2.35;1.60;;;10.40;53.90;;;;;;5052856;28;20021;-89
2021/10/09 08:08:50;;;;;;;4.15;2.10;;;10.60;53.20;;;;;;5054771;28;20145;-89
2021/10/09 08:11:16;;;;;;;5.65;2.13;;;10.80;52.40;;;;;;5054010;28;20029;-89
2021/10/09 08:13:43;;;;;;;2.40;1.85;;;10.90;52.50;;;;;;5052596;28;20526;-88
2021/10/09 08:16:09;;;;;;;2.08;1.80;;;11.10;52.00;;;;;;5053535;28;20027;-88
2021/10/09 08:18:34;;;;;;;2.58;1.95;;;11.20;51.70;;;;;;5054368;28;20024;-89
2021/10/09 08:21:03;;;;;;;2.40;2.05;;;11.30;50.50;;;;;;5054126;28;20033;-88
2021/10/09 08:23:35;;;;;;;3.10;2.15;;;11.30;50.00;;;;;;5060914;28;20021;-87
2021/10/09 08:38:58;;;;;;;3.90;1.83;;;11.30;48.00;;;;;;5054625;28;20027;-88
2021/10/09 08:41:24;;;;;;;3.22;1.67;;;11.20;48.20;;;;;;5052266;28;20522;-89
2021/10/09 08:43:53;;;;;;;5.47;2.72;;;11.20;48.40;;;;;;5051459;28;20155;-89
2021/10/09 08:46:19;;;;;;;2.63;2.03;;;11.10;48.30;;;;;;5052429;28;20048;-88
2021/10/09 08:48:49;;;;;;;2.15;1.73;;;11.00;48.40;;;;;;5051223;28;20096;-90
2021/10/09 08:51:33;;;;;;;1.83;1.50;;;10.90;48.40;;;;;;5052368;28;20067;-87
2021/10/09 08:54:10;;;;;;;4.57;2.08;;;11.00;48.80;;;;;;5051879;28;20021;-88
2021/10/09 08:56:45;;;;;;;4.22;1.85;;;11.00;48.60;;;;;;5052384;28;20029;-88
2021/10/09 09:02:49;;;;;;;1.98;1.77;;;11.20;48.10;;;;;;5054610;28;20082;-86
2021/10/09 09:40:42;;;;;;;1.38;1.27;;;12.10;45.60;;;;;;5057711;28;20036;-88
2021/10/09 09:43:09;;;;;;;2.08;1.40;;;12.20;45.90;;;;;;5055556;28;20029;-88
2021/10/09 09:45:37;;;;;;;2.75;1.77;;;12.40;45.00;;;;;;5057128;28;20108;-89
2021/10/09 09:48:04;;;;;;;2.20;1.73;;;12.50;44.60;;;;;;5057244;28;20412;-90
2021/10/09 09:50:31;;;;;;;5.30;2.05;;;12.50;44.40;;;;;;5056481;28;20527;-90
2021/10/09 09:53:00;;;;;;;1.50;1.40;;;12.60;44.30;;;;;;5055532;28;20384;-87
2021/10/09 09:55:26;;;;;;;2.58;1.85;;;12.60;44.50;;;;;;5054726;28;20120;-90
2021/10/09 09:57:52;;;;;;;1.75;1.65;;;12.60;43.50;;;;;;5056462;28;20057;-89
2021/10/09 10:00:19;;;;;;;4.97;2.03;;;12.60;43.90;;;;;;5055251;28;20070;-88
2021/10/09 10:02:48;;;;;;;5.55;2.17;;;12.50;43.80;;;;;;5055909;28;20364;-88
2021/10/09 10:05:14;;;;;;;3.45;1.77;;;12.40;43.60;;;;;;5056256;28;20448;-88
2021/10/09 10:07:41;;;;;;;2.45;1.50;;;12.40;43.50;;;;;;5056401;28;20029;-89
2021/10/09 10:10:07;;;;;;;3.08;2.03;;;12.20;43.20;;;;;;5055733;28;20016;-87
2021/10/09 10:12:34;;;;;;;4.90;1.73;;;12.20;43.80;;;;;;5054623;28;20452;-86
2021/10/09 10:15:00;;;;;;;1.83;1.45;;;12.10;43.90;;;;;;5054775;28;20542;-90
2021/10/09 10:17:52;;;;;;;3.42;1.77;;;12.10;44.20;;;;;;5056335;28;20013;-87
2021/10/09 10:20:20;;;;;;;3.58;1.55;;;12.10;44.10;;;;;;5053882;28;20063;-88
2021/10/09 10:22:48;;;;;;;1.67;1.50;;;12.10;44.10;;;;;;5056045;28;20487;-88
2021/10/09 10:25:27;;;;;;;2.78;1.42;;;12.20;43.70;;;;;;5055681;28;20013;-87
2021/10/09 10:28:17;;;;;;;2.53;1.77;;;12.30;44.00;;;;;;5055405;28;20028;-89
2021/10/09 10:31:05;;;;;;;2.97;1.75;;;12.40;42.70;;;;;;5055662;28;20066;-87
2021/10/09 10:33:37;;;;;;;3.67;1.70;;;12.40;43.00;;;;;;5054360;28;20025;-88
2021/10/09 10:36:03;;;;;;;2.72;1.25;;;12.50;43.60;;;;;;5053927;28;20025;-87
2021/10/09 10:38:38;;;;;;;1.58;1.45;;;12.70;43.50;;;;;;5055974;28;20044;-88
2021/10/09 10:41:04;;;;;;;2.13;1.42;;;12.80;43.40;;;;;;5055570;28;20463;-89
2021/10/09 10:43:36;;;;;;;1.88;1.67;;;13.00;43.50;;;;;;5054340;28;20017;-87
2021/10/09 10:46:05;;;;;;;3.95;1.83;;;13.20;43.40;;;;;;5055228;28;20013;-86
2021/10/09 10:49:14;;;;;;;1.90;1.38;;;13.40;42.90;;;;;;5054970;28;20032;-86
2021/10/09 10:57:04;;;;;;;1.83;1.52;;;14.00;42.00;;;;;;5054846;28;20035;-87
2021/10/09 10:59:36;;;;;;;2.65;1.48;;;14.10;40.90;;;;;;5054430;28;20075;-88
2021/10/09 11:02:18;;;;;;;2.85;1.90;;;14.10;41.40;;;;;;5054299;28;20116;-88
2021/10/09 11:04:45;;;;;;;2.75;1.63;;;14.10;40.80;;;;;;5054307;28;20024;-87
2021/10/09 11:07:11;;;;;;;4.47;1.90;;;14.10;40.70;;;;;;5055886;28;20036;-88
2021/10/09 11:09:40;;;;;;;2.42;1.48;;;14.10;40.60;;;;;;5054822;28;20066;-88
2021/10/09 11:12:29;;;;;;;1.60;1.45;;;14.00;39.80;;;;;;5054816;28;20025;-88
2021/10/09 11:15:28;;;;;;;1.55;0.90;;;13.90;40.00;;;;;;5054548;28;20049;-88
2021/10/09 11:18:02;;;;;;;1.35;1.17;;;13.90;39.40;;;;;;5052930;28;20021;-88
2021/10/09 11:20:29;;;;;;;;;;;13.80;38.90;;;;;;5054970;28;20112;-88
2021/10/09 11:23:00;;;;;;;1.50;1.33;;;13.70;38.50;;;;;;5054241;28;19958;-89
2021/10/09 11:25:31;;;;;;;2.25;1.83;;;13.70;39.30;;;;;;5054036;28;20017;-88
2021/10/09 11:28:00;;;;;;;1.20;1.10;;;13.70;39.40;;;;;;5054548;28;20036;-89
2021/10/09 11:30:26;;;;;;;3.47;1.63;;;13.60;39.30;;;;;;5053022;28;20032;-89
2021/10/09 11:32:54;;;;;;;1.90;1.27;;;13.60;39.90;;;;;;5054405;28;20017;-89
2021/10/09 11:35:35;;;;;;;2.63;1.50;;;13.60;40.10;;;;;;5053544;28;20017;-89
2021/10/09 11:38:17;;;;;;;4.43;1.55;;;13.60;40.30;;;;;;5051959;28;20061;-88
2021/10/09 11:40:54;;;;;;;2.70;1.60;;;13.60;40.60;;;;;;5052468;28;20526;-89
2021/10/09 11:43:37;;;;;;;1.45;1.35;;;13.60;39.90;;;;;;5053928;28;20021;-88
2021/10/09 11:46:24;;;;;;;1.25;1.15;;;13.60;40.20;;;;;;5054028;28;20031;-88
2021/10/09 11:55:14;;;;;;;3.38;1.58;;;13.60;40.00;;;;;;5054353;28;20108;-88
2021/10/09 11:57:15;;;;;;;4.88;1.92;;;13.50;39.40;;;;;;5036198;28;20132;-88
2021/10/09 11:59:41;;;;;;;2.17;1.30;;;13.50;39.00;;;;;;5052880;28;20486;-88
2021/10/09 12:02:08;;;;;;;2.42;1.77;;;13.60;39.50;;;;;;5054091;28;20421;-87
2021/10/09 12:04:34;;;;;;;1.15;1.05;;;13.60;39.70;;;;;;5052977;28;20059;-87
2021/10/09 12:07:09;;;;;;;2.47;1.63;;;13.70;40.00;;;;;;5051423;28;20376;-88
2021/10/09 12:09:35;;;;;;;2.85;1.95;;;13.70;39.80;;;;;;5054449;28;20021;-88
2021/10/09 12:12:25;;;;;;;3.45;1.95;;;13.80;39.50;;;;;;5052524;28;20043;-88
2021/10/09 12:14:52;;;;;;;1.98;1.63;;;13.80;40.00;;;;;;5054470;28;20029;-88
2021/10/09 12:17:20;;;;;;;3.22;1.42;;;13.80;39.80;;;;;;5054207;28;20071;-88
2021/10/09 12:19:57;;;;;;;2.00;1.50;;;13.80;40.20;;;;;;5053759;28;20032;-88
2021/10/09 12:22:23;;;;;;;1.83;1.40;;;13.80;40.20;;;;;;5053945;28;20333;-88
2021/10/09 12:24:48;;;;;;;4.40;1.55;;;13.80;40.60;;;;;;5052991;28;20116;-88
2021/10/09 12:27:17;;;;;;;2.33;1.60;;;13.90;40.30;;;;;;5051137;28;20464;-87
2021/10/09 12:30:04;;;;;;;1.63;1.52;;;13.90;40.20;;;;;;5049435;28;20096;-88
2021/10/09 12:32:39;;;;;;;3.17;1.75;;;14.00;38.60;;;;;;5049699;28;20364;-88
2021/10/09 12:35:15;;;;;;;3.40;1.35;;;14.00;39.40;;;;;;5034193;28;20078;-88
2021/10/09 12:38:03;;;;;;;2.05;1.50;;;14.00;38.90;;;;;;5051677;28;20450;-90
2021/10/09 12:40:42;;;;;;;3.80;2.00;;;14.10;39.20;;;;;;5037587;28;20013;-88
2021/10/09 12:43:11;;;;;;;2.83;1.65;;;14.20;39.10;;;;;;5044123;28;20021;-88
2021/10/09 12:45:37;;;;;;;3.55;1.83;;;14.10;38.80;;;;;;5053685;28;20059;-88
2021/10/09 12:48:03;;;;;;;3.60;1.67;;;14.10;39.20;;;;;;5053369;28;20078;-88
2021/10/09 12:50:35;;;;;;;4.65;1.83;;;14.20;39.30;;;;;;5053703;28;20472;-88
2021/10/09 12:53:02;;;;;;;1.90;1.65;;;14.20;39.20;;;;;;5053079;28;20036;-88
2021/10/09 12:55:33;;;;;;;1.50;1.40;;;14.20;39.30;;;;;;5053553;28;20028;-87
2021/10/09 12:58:00;;;;;;;2.67;1.48;;;14.20;39.70;;;;;;5052804;28;20466;-87
2021/10/09 13:00:28;;;;;;;3.85;1.67;;;14.20;40.10;;;;;;5052562;28;20108;-88
2021/10/09 13:02:54;;;;;;;1.92;1.83;;;14.20;40.40;;;;;;5052705;28;20027;-88
2021/10/09 13:05:27;;;;;;;3.53;2.00;;;14.20;40.70;;;;;;5053938;28;20067;-88
2021/10/09 13:07:54;;;;;;;2.47;1.58;;;14.20;41.10;;;;;;5051993;28;20455;-88
2021/10/09 13:10:21;;;;;;;4.13;2.30;;;14.10;41.40;;;;;;5053503;28;20025;-87
2021/10/09 13:12:51;;;;;;;3.60;2.30;;;14.10;41.60;;;;;;5052310;28;20031;-87
2021/10/09 13:15:19;;;;;;;3.95;2.20;;;14.00;41.90;;;;;;5053945;28;20024;-88
2021/10/09 13:17:46;;;;;;;3.30;1.90;;;13.90;42.00;;;;;;5051944;28;20024;-87
2021/10/09 13:20:13;;;;;;;3.13;2.30;;;13.80;42.30;;;;;;5053577;28;20070;-86
2021/10/09 13:22:38;;;;;;;2.42;1.92;;;13.70;42.30;;;;;;5053348;28;20021;-87
2021/10/09 13:25:05;;;;;;;2.38;2.03;;;13.60;42.10;;;;;;5052781;28;20032;-88
2021/10/09 13:27:31;;;;;;;1.98;1.60;;;13.50;42.20;;;;;;5052665;28;20084;-88
2021/10/09 13:29:58;;;;;;;2.17;1.75;;;13.40;42.30;;;;;;5052846;28;20083;-88
2021/10/09 13:32:24;;;;;;;2.20;1.92;;;13.30;42.50;;;;;;5047388;28;20045;-87
2021/10/09 13:34:50;;;;;;;1.80;1.70;;;13.20;42.60;;;;;;5033084;28;20017;-87
2021/10/09 13:37:21;;;;;;;2.25;1.85;;;13.20;42.70;;;;;;5033206;28;20028;-87
2021/10/09 13:39:54;;;;;;;4.97;1.83;;;13.10;42.60;;;;;;5040779;28;20025;-87
2021/10/09 13:42:20;;;;;;;3.77;1.83;;;13.00;42.50;;;;;;5052991;28;20036;-86
2021/10/09 13:44:46;;;;;;;2.33;1.58;;;12.90;42.60;;;;;;5052740;28;20024;-88
2021/10/09 13:47:12;;;;;;;2.67;2.03;;;12.90;42.50;;;;;;5052970;28;20025;-86
2021/10/09 13:49:38;;;;;;;4.88;2.10;;;12.80;42.40;;;;;;5053129;28;20069;-87
2021/10/09 13:52:04;;;;;;;3.58;2.20;;;12.70;42.30;;;;;;5052726;28;20045;-87
2021/10/09 13:54:30;;;;;;;2.97;2.10;;;12.70;42.20;;;;;;5052912;28;20029;-88
2021/10/09 13:56:56;;;;;;;8.13;2.92;;;12.60;42.10;;;;;;5051710;28;20367;-87
2021/10/09 13:59:22;;;;;;;3.83;1.92;;;12.50;42.00;;;;;;5053094;28;20025;-87
2021/10/09 14:01:48;;;;;;;1.92;1.73;;;12.50;42.30;;;;;;5052946;28;20079;-88
2021/10/09 14:04:14;;;;;;;3.10;2.25;;;12.40;42.50;;;;;;5052729;28;20344;-87
2021/10/09 14:06:40;;;;;;;2.85;2.00;;;12.40;42.40;;;;;;5053437;28;20024;-87
2021/10/09 14:09:06;;;;;;;2.97;2.00;;;12.30;42.40;;;;;;5053196;28;20095;-87
2021/10/09 14:11:33;;;;;;;4.63;2.50;;;12.20;42.20;;;;;;5055298;28;20029;-86
2021/10/09 14:13:59;;;;;;;4.45;2.03;;;12.20;42.20;;;;;;5056900;28;20024;-87
2021/10/09 14:16:24;;;;;;;3.25;2.58;;;12.20;42.00;;;;;;5056531;28;20025;-87
2021/10/09 14:18:50;;;;;;;3.03;2.17;;;12.10;41.90;;;;;;5056986;28;20024;-87
2021/10/09 14:21:16;;;;;;;3.22;2.00;;;12.10;42.10;;;;;;5055250;28;20112;-87
2021/10/09 14:23:42;;;;;;;3.20;2.22;;;12.00;42.00;;;;;;5056345;28;20029;-88
2021/10/09 14:26:08;;;;;;;3.28;2.25;;;12.00;42.00;;;;;;5056880;28;20029;-87
2021/10/09 14:28:34;;;;;;;3.50;2.13;;;11.90;42.20;;;;;;5056354;28;20024;-87
2021/10/09 14:31:00;;;;;;;7.40;2.10;;;11.90;42.20;;;;;;5054991;28;20033;-88
2021/10/09 14:33:26;;;;;;;3.10;1.70;;;11.90;42.60;;;;;;5054539;28;20359;-88
2021/10/09 14:35:51;;;;;;;3.00;2.38;;;11.80;42.70;;;;;;5053678;28;20029;-88
2021/10/09 14:38:17;;;;;;;2.95;2.00;;;11.80;42.90;;;;;;5057834;28;20085;-87
2021/10/09 14:40:45;;;;;;;2.38;1.83;;;11.70;43.10;;;;;;5043281;28;20518;-87
2021/10/09 14:43:11;;;;;;;6.43;2.35;;;11.70;43.40;;;;;;5057908;28;20248;-88
2021/10/09 14:45:39;;;;;;;3.35;2.20;;;11.70;43.80;;;;;;5055979;28;20444;-86
2021/10/09 14:50:41;;;;;;;2.45;2.05;;;11.60;44.00;;;;;;5055173;28;20048;-88
2021/10/09 14:53:22;;;;;;;4.00;2.60;;;11.50;44.10;;;;;;5055615;28;20029;-90
2021/10/09 15:20:07;;;;;;;3.63;1.80;;;11.00;44.60;;;;;;5051210;28;20032;-89
2021/10/09 15:22:33;;;;;;;3.10;2.33;;;10.90;44.90;;;;;;5051981;28;20017;-88
2021/10/09 15:25:00;;;;;;;1.85;1.70;;;10.90;45.20;;;;;;5051603;28;20024;-89
2021/10/09 15:27:28;;;;;;;6.60;3.13;;;10.80;45.90;;;;;;5053520;28;20468;-86
2021/10/09 15:29:55;;;;;;;5.20;3.20;;;10.80;46.70;;;;;;5049101;28;20026;-87
2021/10/09 15:32:21;;;;;;;4.38;2.45;;;10.70;46.60;;;;;;5033858;28;20468;-88
2021/10/09 15:34:47;;;;;;;1.92;1.65;;;10.70;46.80;;;;;;5032513;28;20378;-89
2021/10/09 15:37:13;;;;;;;5.30;2.63;;;10.60;46.80;;;;;;5051523;28;20027;-87
2021/10/09 15:39:40;;;;;;;5.45;3.00;;;10.60;46.70;;;;;;5052234;28;20029;-87
2021/10/09 15:42:07;;;;;;;4.95;3.05;;;10.60;46.80;;;;;;5053605;28;20028;-88
2021/10/09 15:44:34;;;;;;;3.90;2.72;;;10.50;46.60;;;;;;5053604;28;20017;-88
2021/10/09 15:46:59;;;;;;;6.00;3.30;;;10.50;46.70;;;;;;5059862;28;20029;-89